ADDS TAF Board (Experimental) INFO

IDs: Format: Expanded Condensed

Updated at: 1956 UTC 21 Oct 2014

KSLC - Salt Lake City Intl, UT, US

Issued at 1733 UTC 21 Oct 2014
Time1953Z21/20Z21/21Z21/22Z21/23Z22/00Z22/01Z22/02Z22/03Z22/04Z22/05Z22/06Z22/07Z22/08Z
TypeOBSPRVLPRVLPRVLPRVLPRVLPRVLPRVLPRVLPRVLPRVLPRVLPRVLPRVL
VIS10>6>6>6>6>6>6>6>6>6>6>6>6>6
CIG100--------------------------
CoverBKNSCTSCTSCTSCTSCTSCTSCTSCTSCTSCTSCTSCTSCT
FltCat--VFRVFRVFRVFRVFRVFRVFRVFRVFRVFRVFRVFRVFR
WX----------------------------
WDir320320320320320320320320320320320320320320
WSpd1710101010101010101010101010
WGst22--------------------------
R14/32
XWnd-4-2-2-2-2-2-2-2-2-2-2-2-2-2
XGst-5--------------------------
HWnd-17-10-10-10-10-10-10-10-10-10-10-10-10-10
HGst-21--------------------------
R16/34
XWnd-10-6-6-6-6-6-6-6-6-6-6-6-6-6
XGst-13--------------------------
HWnd-14-8-8-8-8-8-8-8-8-8-8-8-8-8
HGst-18--------------------------
R17/35
XWnd-11-6-6-6-6-6-6-6-6-6-6-6-6-6
XGst-14--------------------------
HWnd-13-8-8-8-8-8-8-8-8-8-8-8-8-8
HGst-17--------------------------
RHB/18
XWnd116666666666666
XGst14--------------------------
HWnd138888888888888
HGst17--------------------------
Raw TAF
KSLC 211733Z 2118/2224 34010G16KT P6SM BKN080
  FM212000 32010KT P6SM SCT080
  FM220900 15004KT P6SM SKC


Raw METAR
KSLC 211953Z 32017G22KT 10SM FEW055 SCT070TCU BKN100 BKN180 16/03 A3000 RMK AO2 SLP122 CB DSNT NE AND SE TCU NW T01610033
KSLC 211853Z 31020KT 10SM FEW050 BKN075TCU BKN100 BKN150 16/02 A3001 RMK AO2 SLP124 CB DSNT E-SE TCU NE AND NW T01610022

TAF Board Legend

Hazard VFR MVFR IFR LIFR
Visibility (sm) >5 3≤X≤5 1≤X<3 <1
Ceiling (100 ft) >30 10≤X≤30 5≤X<10 <5
Wind Speed (kt) <10 10≤X<20 20≤X<30 ≥30
Wind Gust (kt) <15 15≤X<25 25≤X<35 ≥35
Weather No Wx Reported VCTS,-TS,-FZRA TS,FZRA +TS,+FZRA


Page loaded:  19:56 UTC  |   12:56 PM Pacific  |   01:56 PM Mountain  |   02:56 PM Central  |   03:56 PM Eastern

 

ADVISORIES

FORECASTS

FORECASTS

OBSERVATIONS

USER TOOLS

ABOUT US